Vincent, Ohio
Current Conditions -  °F | °C
As of 7:53 PM on Tuesday 21 Oct 2014 (Local Time) from KPKB Reporting Station
Overcast Overcast  
Wind Chill: 46°   Ceiling: 4000
Heat Index: 48°   Visibility: 10mi
Dew Point: 44°   Wind: 5mph
Humidity: 86%   Direction: 310°NW
Pressure: 30.07"   Gusts: NA
Location:  39.37°N, 81.66°W
Report Text: KPKB 212353Z 31004KT 10SM OVC040 09/07 A3007 RMK AO2 SLP183 60013 T00890067 10106 20089 51013
Loading
Personal Weather Stations






























Interactive Weather Map
Tropical Storm Tracking
New forecast layout! Learn more

10-Day Weather Forecast

Advertisements
Track Severe Weather on mobile